Time;durP1;ratioP1;P1;durP2;ratioP2;P2;SDS_P1;SDS_P2;PMS_P1;PMS_P2;Temp;Humidity;BMP_temperature;BMP_pressure;BME280_temperature;BME280_humidity;BME280_pressure;Samples;Min_cycle;Max_cycle;Signal;HPM_P1;HPM_P2
2021/04/20 00:01:48;;;;;;;0.10;0.10;;;;;;;3.40;74.26;102103.84;10452766;28;20412;-71
2021/04/20 00:06:49;;;;;;;0.10;0.10;;;;;;;3.13;75.42;102095.63;10434222;28;20392;-70
2021/04/20 00:11:49;;;;;;;0.10;0.10;;;;;;;3.03;76.89;102094.41;10451466;28;20271;-70
2021/04/20 00:16:50;;;;;;;0.10;0.10;;;;;;;3.01;77.15;102091.00;10452148;28;20100;-70
2021/04/20 00:21:51;;;;;;;0.10;0.10;;;;;;;3.17;76.61;102084.88;10451252;28;20120;-70
2021/04/20 00:26:51;;;;;;;0.10;0.10;;;;;;;3.34;76.38;102083.94;10411292;28;20025;-70
2021/04/20 00:31:51;;;;;;;0.15;0.15;;;;;;;3.43;76.43;102079.13;10410252;28;20028;-70
2021/04/20 00:36:51;;;;;;;0.10;0.10;;;;;;;3.39;75.81;102076.66;10410171;28;20013;-70
2021/04/20 00:42:03;;;;;;;0.00;0.00;;;;;;;3.35;76.62;102061.97;10409321;28;20021;-70
2021/04/20 00:47:03;;;;;;;0.10;0.10;;;;;;;3.32;77.14;102063.91;10409782;28;20096;-70
2021/04/20 00:52:04;;;;;;;0.10;0.10;;;;;;;3.33;76.88;102058.56;10408861;28;20440;-70
2021/04/20 00:57:07;;;;;;;0.10;0.10;;;;;;;3.37;77.69;102052.22;10409029;28;20566;-69
2021/04/20 01:02:07;;;;;;;0.10;0.10;;;;;;;3.45;76.81;102054.41;10407600;28;20032;-69
2021/04/20 01:07:09;;;;;;;0.13;0.13;;;;;;;3.47;76.36;102056.97;10407708;28;20021;-70
2021/04/20 01:12:09;;;;;;;0.10;0.10;;;;;;;3.46;76.91;102064.03;10484836;28;20028;-70
2021/04/20 01:17:11;;;;;;;0.10;0.10;;;;;;;3.45;77.49;102054.41;10491447;28;20491;-69
2021/04/20 01:22:13;;;;;;;0.05;0.05;;;;;;;3.36;77.84;102054.91;10488589;28;20020;-69
2021/04/20 01:27:14;;;;;;;0.03;0.03;;;;;;;3.17;78.49;102058.53;10408245;28;20029;-69
2021/04/20 01:32:15;;;;;;;0.00;0.00;;;;;;;3.13;78.90;102054.34;10408804;28;20032;-70
2021/04/20 01:37:15;;;;;;;0.10;0.10;;;;;;;3.00;79.41;102055.94;10407868;28;20048;-70
2021/04/20 01:42:16;;;;;;;0.10;0.10;;;;;;;2.92;80.15;102040.53;10412324;28;20274;-70
2021/04/20 01:47:17;;;;;;;0.00;0.00;;;;;;;2.88;79.98;102044.25;10416346;28;20183;-70
2021/04/20 01:52:17;;;;;;;0.00;0.00;;;;;;;2.83;80.51;102045.44;10415746;28;20096;-69
2021/04/20 01:57:18;;;;;;;0.08;0.08;;;;;;;2.76;81.05;102059.81;10416290;28;20461;-70
2021/04/20 02:02:19;;;;;;;0.17;0.17;;;;;;;2.59;80.82;102051.03;10415977;28;20112;-70
2021/04/20 02:07:19;;;;;;;0.10;0.10;;;;;;;2.37;80.56;102048.59;10415400;28;20028;-70
2021/04/20 02:12:20;;;;;;;0.00;0.00;;;;;;;2.09;81.61;102056.13;10415328;28;20107;-69
2021/04/20 02:17:22;;;;;;;0.10;0.10;;;;;;;1.92;82.96;102046.44;10414959;28;20048;-69
2021/04/20 02:22:23;;;;;;;0.22;0.22;;;;;;;1.80;83.85;102054.00;10414773;28;20029;-69
2021/04/20 02:27:24;;;;;;;0.10;0.10;;;;;;;1.70;83.68;102049.25;10414204;28;20096;-69
2021/04/20 02:32:26;;;;;;;0.10;0.10;;;;;;;1.55;83.60;102049.03;10414747;28;20021;-69
2021/04/20 02:37:26;;;;;;;0.10;0.10;;;;;;;1.35;82.94;102047.31;10414014;28;20029;-69
2021/04/20 02:42:27;;;;;;;0.10;0.10;;;;;;;1.19;83.80;102040.19;10414207;28;20033;-70
2021/04/20 02:47:28;;;;;;;0.10;0.10;;;;;;;1.15;85.14;102046.50;10413934;28;20036;-69
2021/04/20 02:52:30;;;;;;;0.10;0.10;;;;;;;1.17;86.52;102049.94;10413194;28;20032;-70
2021/04/20 02:57:35;;;;;;;0.10;0.10;;;;;;;1.30;87.17;102041.41;10413166;28;20029;-70
2021/04/20 03:02:39;;;;;;;0.10;0.10;;;;;;;1.40;87.13;102039.25;10428377;28;20018;-70
2021/04/20 03:07:40;;;;;;;0.13;0.13;;;;;;;1.41;87.03;102040.94;10413302;28;20018;-70
2021/04/20 03:12:41;;;;;;;0.10;0.10;;;;;;;1.35;86.99;102039.44;10413201;28;20362;-69
2021/04/20 03:17:46;;;;;;;0.17;0.17;;;;;;;1.29;87.29;102036.25;10412466;28;20109;-69
2021/04/20 03:22:48;;;;;;;;;;;;;;;0.95;84.63;102037.75;10411535;28;20029;-69
2021/04/20 03:27:53;;;;;;;0.13;0.13;;;;;;;0.51;86.95;102026.56;10445145;28;20291;-69
2021/04/20 03:33:09;;;;;;;0.10;0.10;;;;;;;0.30;87.64;102028.31;10435673;28;20031;-69
2021/04/20 03:38:20;;;;;;;0.20;0.20;;;;;;;0.49;90.12;102020.50;10452883;28;20372;-69
2021/04/20 03:43:26;;;;;;;0.20;0.20;;;;;;;0.72;91.04;102014.28;10451421;28;20108;-69
2021/04/20 03:48:41;;;;;;;0.10;0.10;;;;;;;0.94;90.67;102009.81;10447689;28;20166;-69
2021/04/20 03:53:46;;;;;;;0.20;0.20;;;;;;;1.10;89.91;102007.34;10448795;28;20035;-69
2021/04/20 03:58:49;;;;;;;;;;;;;;;1.20;89.44;102002.53;10437162;28;20108;-70
2021/04/20 04:03:53;;;;;;;0.10;0.10;;;;;;;1.28;89.71;102009.16;10423457;28;20187;-70
2021/04/20 04:08:53;;;;;;;0.20;0.20;;;;;;;1.38;89.31;102008.72;10409932;28;20021;-69
2021/04/20 04:13:54;;;;;;;0.20;0.20;;;;;;;1.46;89.14;102001.34;10438362;22;20042;-66
2021/04/20 04:18:56;;;;;;;0.10;0.10;;;;;;;1.63;88.74;102013.66;10431576;28;20024;-66
2021/04/20 04:24:02;;;;;;;0.20;0.20;;;;;;;1.93;87.70;102006.09;10420959;28;20024;-66
2021/04/20 04:29:08;;;;;;;0.10;0.10;;;;;;;2.44;86.21;102001.81;10419603;28;20019;-66
2021/04/20 04:34:11;;;;;;;0.20;0.20;;;;;;;3.05;83.46;102003.88;10446858;28;20060;-66
2021/04/20 04:39:14;;;;;;;0.10;0.10;;;;;;;3.74;80.92;102007.16;10447473;28;20098;-67
2021/04/20 04:44:14;;;;;;;0.00;0.00;;;;;;;4.52;78.01;101994.75;10429526;28;20486;-67
2021/04/20 04:49:15;;;;;;;0.10;0.10;;;;;;;5.37;74.26;102001.81;10418181;28;20033;-68
2021/04/20 04:54:17;;;;;;;0.00;0.00;;;;;;;6.20;71.51;102001.81;10449670;28;20082;-68
2021/04/20 04:59:19;;;;;;;0.10;0.10;;;;;;;7.02;67.98;102002.41;10431966;28;20029;-68
2021/04/20 05:04:23;;;;;;;0.00;0.00;;;;;;;7.97;64.63;102000.00;10450089;28;20021;-67
2021/04/20 05:09:24;;;;;;;0.00;0.00;;;;;;;8.45;62.48;102006.13;10416553;28;20017;-67
2021/04/20 05:14:25;;;;;;;0.00;0.00;;;;;;;8.99;60.02;102007.34;10429548;28;20275;-67
2021/04/20 05:19:31;;;;;;;0.10;0.10;;;;;;;9.74;59.04;102002.19;10434702;28;20024;-66
2021/04/20 05:24:31;;;;;;;0.10;0.10;;;;;;;10.67;55.12;101995.34;10456451;28;20480;-67
2021/04/20 05:29:32;;;;;;;0.10;0.10;;;;;;;11.31;53.89;101991.56;10453506;28;20017;-67
2021/04/20 05:34:33;;;;;;;0.10;0.10;;;;;;;11.78;51.95;101992.69;10451782;28;20028;-66
2021/04/20 05:39:33;;;;;;;0.10;0.10;;;;;;;11.38;52.63;101994.56;10455432;28;20511;-65
2021/04/20 05:44:34;;;;;;;0.10;0.10;;;;;;;11.53;53.28;102002.03;10456143;28;20463;-66
2021/04/20 05:49:34;;;;;;;0.10;0.10;;;;;;;12.02;52.60;101990.63;10455790;28;20471;-65
2021/04/20 05:54:35;;;;;;;0.10;0.10;;;;;;;12.53;51.84;101992.97;10453888;28;20021;-65
2021/04/20 05:59:36;;;;;;;0.10;0.10;;;;;;;12.37;51.00;101987.38;10455956;28;20041;-65
2021/04/20 06:04:37;;;;;;;0.10;0.10;;;;;;;12.48;51.43;102000.59;10451027;28;20082;-64
2021/04/20 06:09:38;;;;;;;0.10;0.10;;;;;;;13.03;50.19;101989.16;10451335;28;20028;-65
2021/04/20 06:14:39;;;;;;;0.15;0.15;;;;;;;12.79;50.79;101997.69;10455442;28;20740;-65
2021/04/20 06:19:41;;;;;;;0.10;0.10;;;;;;;13.36;49.75;101998.50;10452279;28;20017;-65
2021/04/20 06:24:42;;;;;;;0.10;0.10;;;;;;;13.40;48.60;101991.84;10454662;28;20028;-66
2021/04/20 06:29:43;;;;;;;0.10;0.10;;;;;;;13.31;49.41;101992.72;10432268;28;20456;-64
2021/04/20 06:34:43;;;;;;;0.10;0.10;;;;;;;13.44;48.28;101992.38;10451563;28;20086;-65
2021/04/20 06:39:44;;;;;;;0.10;0.10;;;;;;;13.67;49.40;101982.09;10451277;28;20055;-65
2021/04/20 06:44:57;;;;;;;0.10;0.10;;;;;;;14.10;49.13;101981.34;10449485;28;20381;-67
2021/04/20 06:50:02;;;;;;;0.10;0.10;;;;;;;14.24;47.92;101985.31;10453703;28;20483;-65
2021/04/20 06:55:11;;;;;;;0.10;0.10;;;;;;;13.78;48.81;101971.16;10453621;28;20396;-66
2021/04/20 07:00:16;;;;;;;0.10;0.10;;;;;;;13.85;50.28;101979.47;10454529;28;20393;-66
2021/04/20 07:05:26;;;;;;;0.10;0.10;;;;;;;13.82;48.87;101975.25;10447206;28;20020;-65
2021/04/20 07:10:32;;;;;;;0.00;0.00;;;;;;;14.36;48.50;101973.34;10439361;28;20048;-65
2021/04/20 07:15:36;;;;;;;0.10;0.10;;;;;;;14.58;47.65;101965.84;10451096;28;20017;-65
2021/04/20 07:21:07;;;;;;;0.10;0.10;;;;;;;14.98;44.69;101970.59;10453979;28;20104;-66
2021/04/20 07:26:32;;;;;;;0.10;0.10;;;;;;;14.87;46.51;101970.88;10454240;28;20110;-65
2021/04/20 07:31:56;;;;;;;0.10;0.10;;;;;;;15.16;45.25;101967.81;10453584;28;20032;-66
2021/04/20 07:37:23;;;;;;;0.10;0.10;;;;;;;15.42;43.82;101974.94;10445686;28;20078;-66
2021/04/20 07:42:42;;;;;;;0.10;0.10;;;;;;;15.80;44.03;101969.03;10412165;28;20037;-65
2021/04/20 07:47:48;;;;;;;0.10;0.10;;;;;;;15.83;44.90;101963.34;10443974;28;20100;-66
2021/04/20 07:53:00;;;;;;;0.10;0.10;;;;;;;15.89;45.64;101961.00;10454464;28;20044;-66
2021/04/20 07:58:05;;;;;;;0.10;0.10;;;;;;;16.05;42.13;101958.31;10453086;28;20052;-66
2021/04/20 08:03:25;;;;;;;0.10;0.10;;;;;;;15.88;42.93;101961.97;10452802;28;20028;-66
2021/04/20 08:08:42;;;;;;;0.10;0.10;;;;;;;15.95;42.51;101955.78;10451719;28;20028;-66
2021/04/20 08:13:50;;;;;;;0.10;0.10;;;;;;;15.97;41.98;101951.09;10447155;28;20032;-67
2021/04/20 08:18:59;;;;;;;0.10;0.10;;;;;;;15.99;42.93;101953.59;10431243;28;20074;-66
2021/04/20 08:24:03;;;;;;;0.10;0.10;;;;;;;16.21;44.04;101950.25;10437796;28;20555;-66
2021/04/20 08:29:15;;;;;;;0.10;0.10;;;;;;;16.36;42.06;101949.56;10450761;28;20040;-66
2021/04/20 08:34:22;;;;;;;0.10;0.10;;;;;;;16.63;40.67;101949.16;10446603;28;20040;-66
2021/04/20 08:39:39;;;;;;;0.10;0.10;;;;;;;16.56;44.61;101947.34;10449106;28;20023;-66
2021/04/20 08:45:06;;;;;;;0.10;0.10;;;;;;;16.23;43.12;101933.94;10447247;28;20027;-65
2021/04/20 08:50:14;;;;;;;0.10;0.10;;;;;;;16.39;40.24;101933.94;10446338;28;20064;-66
2021/04/20 08:55:43;;;;;;;0.10;0.10;;;;;;;16.27;41.60;101928.06;10447823;28;20099;-66
2021/04/20 09:00:57;;;;;;;0.10;0.10;;;;;;;16.35;41.31;101929.03;10444794;28;20554;-66
2021/04/20 09:06:04;;;;;;;0.10;0.10;;;;;;;16.31;42.52;101933.94;10449602;28;20020;-66
2021/04/20 09:11:11;;;;;;;0.10;0.10;;;;;;;16.27;43.77;101919.16;10448413;28;20083;-65
2021/04/20 09:16:13;;;;;;;0.10;0.10;;;;;;;15.98;40.08;101925.06;10424740;28;20025;-66
2021/04/20 09:21:18;;;;;;;0.10;0.10;;;;;;;16.14;39.86;101914.28;10442608;28;20108;-67
2021/04/20 09:26:43;;;;;;;0.10;0.10;;;;;;;16.01;41.74;101913.97;10448803;28;20062;-66
2021/04/20 09:31:58;;;;;;;0.10;0.10;;;;;;;16.15;41.29;101912.47;10447962;28;20091;-67
2021/04/20 09:37:01;;;;;;;0.10;0.10;;;;;;;15.81;40.55;101914.28;10448899;28;20017;-67
2021/04/20 09:42:05;;;;;;;0.10;0.10;;;;;;;15.73;40.97;101922.34;10447498;28;20063;-66
2021/04/20 09:47:06;;;;;;;0.10;0.10;;;;;;;15.83;42.28;101916.84;10430560;28;20426;-67
2021/04/20 09:52:10;;;;;;;0.10;0.10;;;;;;;15.96;39.30;101908.25;10444577;28;20115;-66
2021/04/20 09:57:15;;;;;;;0.10;0.10;;;;;;;16.17;41.33;101905.03;10446019;28;20033;-66
2021/04/20 10:02:53;;;;;;;0.10;0.10;;;;;;;16.27;41.67;101911.09;10448431;28;20060;-66
2021/04/20 10:08:32;;;;;;;0.10;0.10;;;;;;;16.24;37.14;101914.97;10455250;28;20498;-67
2021/04/20 10:14:02;;;;;;;0.10;0.10;;;;;;;16.02;39.61;101921.00;10454060;28;20078;-67
2021/04/20 10:19:18;;;;;;;0.10;0.10;;;;;;;15.88;35.94;101914.47;10451591;28;20478;-67
2021/04/20 10:24:23;;;;;;;0.10;0.10;;;;;;;16.02;40.17;101889.59;10480128;22;20045;-91
2021/04/20 10:29:37;;;;;;;0.10;0.10;;;;;;;16.40;40.41;101889.88;10432831;28;20021;-91
2021/04/20 10:34:48;;;;;;;0.10;0.10;;;;;;;16.23;35.66;101889.09;10462844;28;20024;-91
2021/04/20 10:39:51;;;;;;;0.10;0.10;;;;;;;16.26;39.18;101880.69;10446211;28;20051;-90
2021/04/20 10:44:55;;;;;;;0.10;0.10;;;;;;;15.99;35.49;101870.28;10447343;28;20025;-89
2021/04/20 10:50:00;;;;;;;0.10;0.10;;;;;;;16.01;35.79;101892.47;10436983;28;20032;-91
2021/04/20 10:55:10;;;;;;;0.10;0.10;;;;;;;16.19;34.76;101887.75;10442633;28;20412;-91
2021/04/20 11:00:13;;;;;;;0.10;0.10;;;;;;;16.01;38.06;101866.44;10430498;28;20087;-91
2021/04/20 11:05:22;;;;;;;0.00;0.00;;;;;;;15.97;38.89;101872.31;10434177;28;20021;-91
2021/04/20 11:10:27;;;;;;;0.10;0.10;;;;;;;16.10;32.90;101866.44;10433830;28;20025;-91
2021/04/20 11:15:29;;;;;;;0.10;0.10;;;;;;;16.13;36.20;101855.34;10442483;28;20017;-91
2021/04/20 11:20:43;;;;;;;0.10;0.10;;;;;;;16.12;40.23;101854.50;10442649;28;20455;-92
2021/04/20 11:25:49;;;;;;;0.10;0.10;;;;;;;15.96;37.71;101860.72;10441451;28;20119;-92
2021/04/20 11:30:57;;;;;;;0.10;0.10;;;;;;;16.06;34.98;101860.56;10431245;28;20059;-92
2021/04/20 11:36:03;;;;;;;0.10;0.10;;;;;;;16.05;33.67;101840.88;10442391;28;20040;-92
2021/04/20 11:41:04;;;;;;;0.10;0.10;;;;;;;16.34;32.82;101839.47;10441900;28;20504;-93
2021/04/20 11:46:07;;;;;;;0.10;0.10;;;;;;;16.33;38.14;101832.44;10439025;28;20108;-91
2021/04/20 11:51:08;;;;;;;0.10;0.10;;;;;;;16.22;30.47;101825.56;10432186;28;20086;-91
2021/04/20 11:56:09;;;;;;;0.10;0.10;;;;;;;16.17;34.09;101833.31;10419250;28;20088;-91
2021/04/20 12:01:15;;;;;;;0.17;0.17;;;;;;;16.28;34.27;101830.25;10432085;28;20470;-91
2021/04/20 12:06:15;;;;;;;0.10;0.10;;;;;;;16.14;32.36;101835.50;10435957;28;20047;-91
2021/04/20 12:11:18;;;;;;;0.10;0.10;;;;;;;16.15;32.31;101818.38;10428111;28;20116;-91
2021/04/20 12:16:19;;;;;;;0.10;0.10;;;;;;;16.08;31.12;101828.97;10433281;28;20021;-91
2021/04/20 12:21:23;;;;;;;0.10;0.10;;;;;;;16.02;32.38;101816.22;10435833;28;20031;-92
2021/04/20 12:26:25;;;;;;;;;;;;;;;16.04;34.84;101824.94;10438953;28;20025;-91
2021/04/20 12:31:30;;;;;;;0.10;0.10;;;;;;;16.00;37.08;101807.50;10454264;28;19909;-93
2021/04/20 12:36:37;;;;;;;0.10;0.10;;;;;;;16.06;36.90;101806.81;10456140;28;20029;-92
2021/04/20 12:41:40;;;;;;;0.10;0.10;;;;;;;16.35;34.22;101822.34;10443219;28;20083;-92
2021/04/20 12:46:43;;;;;;;0.03;0.03;;;;;;;16.47;34.10;101812.91;10446354;28;20032;-93
2021/04/20 12:51:43;;;;;;;0.10;0.10;;;;;;;16.52;31.79;101796.22;10449588;28;20024;-92
2021/04/20 12:56:45;;;;;;;0.10;0.10;;;;;;;16.62;33.37;101801.41;10441002;28;20021;-92
2021/04/20 13:01:54;;;;;;;0.10;0.10;;;;;;;16.35;32.22;101803.53;10441607;28;20017;-91
2021/04/20 13:06:55;;;;;;;0.10;0.10;;;;;;;16.15;31.23;101786.97;10435066;28;20017;-92
2021/04/20 13:12:00;;;;;;;0.10;0.10;;;;;;;16.21;33.43;101780.91;10445399;28;20025;-92
2021/04/20 13:17:01;;;;;;;0.10;0.10;;;;;;;16.32;37.40;101779.69;10440810;28;20444;-90
2021/04/20 13:22:04;;;;;;;0.10;0.10;;;;;;;16.37;35.85;101781.84;10438415;28;20115;-91
2021/04/20 13:27:05;;;;;;;0.10;0.10;;;;;;;16.34;37.40;101776.81;10430093;28;20512;-91
2021/04/20 13:32:08;;;;;;;0.10;0.10;;;;;;;16.41;33.27;101759.81;10440455;28;20021;-92
2021/04/20 13:37:17;;;;;;;0.10;0.10;;;;;;;16.58;36.74;101747.13;10430434;28;20029;-93
2021/04/20 13:42:24;;;;;;;0.00;0.00;;;;;;;16.69;34.01;101749.41;10442242;28;20017;-92
2021/04/20 13:47:27;;;;;;;0.10;0.10;;;;;;;16.67;33.58;101737.19;10446086;28;20021;-92
2021/04/20 13:52:38;;;;;;;0.10;0.10;;;;;;;16.53;31.22;101736.91;10444666;28;20024;-89
2021/04/20 13:57:44;;;;;;;0.10;0.10;;;;;;;16.61;34.13;101727.09;10443788;28;20025;-88
2021/04/20 14:02:51;;;;;;;0.10;0.10;;;;;;;16.50;31.23;101736.41;10442921;28;20024;-88
2021/04/20 14:07:53;;;;;;;0.10;0.10;;;;;;;16.33;31.49;101714.16;10443643;28;20028;-89
2021/04/20 14:13:03;;;;;;;0.10;0.10;;;;;;;16.36;32.22;101726.41;10435091;28;20683;-89
2021/04/20 14:18:07;;;;;;;0.10;0.10;;;;;;;16.58;32.60;101725.63;10445923;28;20025;-90
2021/04/20 14:23:10;;;;;;;0.10;0.10;;;;;;;16.40;31.16;101723.16;10444691;28;20119;-89
2021/04/20 14:28:12;;;;;;;0.10;0.10;;;;;;;16.34;32.01;101714.97;10444359;28;20025;-89
2021/04/20 14:33:13;;;;;;;0.10;0.10;;;;;;;16.40;33.31;101716.97;10444450;28;20017;-89
2021/04/20 14:38:13;;;;;;;0.10;0.10;;;;;;;16.34;32.77;101731.09;10444962;28;20040;-89
2021/04/20 14:43:18;;;;;;;0.10;0.10;;;;;;;16.29;34.43;101710.97;10444131;28;20469;-89
2021/04/20 14:48:20;;;;;;;0.10;0.10;;;;;;;16.26;32.21;101708.63;10442640;28;20074;-89
2021/04/20 14:53:26;;;;;;;0.10;0.10;;;;;;;16.16;32.60;101708.00;10443015;28;20037;-89
2021/04/20 14:58:32;;;;;;;0.10;0.10;;;;;;;16.06;32.16;101707.38;10441295;28;20074;-89
2021/04/20 15:03:35;;;;;;;0.10;0.10;;;;;;;16.05;31.30;101713.75;10444299;28;20021;-89
2021/04/20 15:08:39;;;;;;;0.10;0.10;;;;;;;16.00;31.51;101716.16;10464102;28;20033;-88
2021/04/20 15:13:49;;;;;;;0.10;0.10;;;;;;;15.94;32.25;101714.97;10447999;28;20432;-89
2021/04/20 15:19:18;;;;;;;0.10;0.10;;;;;;;15.80;31.78;101699.56;10467249;28;20029;-89
2021/04/20 15:24:31;;;;;;;0.13;0.13;;;;;;;15.75;32.86;101694.69;10445549;28;20051;-89
2021/04/20 15:29:37;;;;;;;0.10;0.10;;;;;;;15.79;33.46;101695.19;10448692;28;20013;-89
2021/04/20 15:34:41;;;;;;;0.10;0.10;;;;;;;15.74;31.60;101698.41;10487140;28;20017;-94
2021/04/20 15:45:12;;;;;;;0.10;0.10;;;;;;;15.65;33.50;101693.19;10453120;28;20095;-70
2021/04/20 15:50:14;;;;;;;0.20;0.20;;;;;;;15.51;33.10;101695.56;10425609;28;20300;-70
2021/04/20 15:55:23;;;;;;;0.10;0.10;;;;;;;15.46;32.91;101700.59;10414358;28;20087;-70
2021/04/20 16:00:36;;;;;;;0.10;0.10;;;;;;;15.37;34.92;101702.47;10411850;28;20029;-70
2021/04/20 16:05:39;;;;;;;0.10;0.10;;;;;;;15.20;33.46;101711.53;10412198;28;20048;-69
2021/04/20 16:10:42;;;;;;;0.10;0.10;;;;;;;15.09;34.35;101707.31;10413166;28;20664;-69
2021/04/20 16:15:50;;;;;;;0.10;0.10;;;;;;;15.00;34.74;101699.44;10413141;28;20033;-68
2021/04/20 16:20:55;;;;;;;0.10;0.10;;;;;;;14.88;33.47;101693.56;10395193;28;20040;-69
2021/04/20 16:25:57;;;;;;;0.10;0.10;;;;;;;14.83;32.50;101704.78;10436311;22;20046;-68
2021/04/20 16:31:05;;;;;;;0.00;0.00;;;;;;;14.78;33.05;101699.09;10414540;28;20040;-68
2021/04/20 16:36:13;;;;;;;0.15;0.15;;;;;;;14.66;34.32;101701.25;10409300;28;20435;-68
2021/04/20 16:41:41;;;;;;;0.10;0.10;;;;;;;14.52;33.76;101693.84;10409990;28;20018;-68
2021/04/20 16:46:53;;;;;;;0.10;0.10;;;;;;;14.38;33.37;101692.59;10377867;28;20029;-68
2021/04/20 16:52:06;;;;;;;0.10;0.10;;;;;;;14.24;34.25;101696.75;10368792;28;20037;-68
2021/04/20 16:57:25;;;;;;;0.10;0.10;;;;;;;14.09;34.27;101692.19;10364640;28;20032;-68
2021/04/20 17:02:41;;;;;;;0.10;0.10;;;;;;;14.03;34.84;101688.28;10380838;28;20036;-68
2021/04/20 17:07:52;;;;;;;0.10;0.10;;;;;;;13.97;35.97;101695.13;10402706;28;20032;-68
2021/04/20 17:12:55;;;;;;;0.10;0.10;;;;;;;13.78;37.50;101690.00;10412545;28;20111;-68
2021/04/20 17:17:57;;;;;;;0.10;0.10;;;;;;;13.50;38.05;101692.03;10413976;28;20033;-68
2021/04/20 17:23:13;;;;;;;0.10;0.10;;;;;;;13.30;38.97;101686.88;10415835;28;20431;-68
2021/04/20 17:28:38;;;;;;;0.10;0.10;;;;;;;13.12;38.90;101692.22;10416149;28;20033;-68
2021/04/20 17:34:00;;;;;;;0.10;0.10;;;;;;;12.98;38.75;101689.25;10416100;28;20017;-69
2021/04/20 17:39:38;;;;;;;0.20;0.20;;;;;;;12.88;39.02;101694.66;10415863;28;20484;-68
2021/04/20 17:44:50;;;;;;;0.10;0.10;;;;;;;12.55;40.43;101688.16;10379461;28;20033;-68
2021/04/20 17:50:22;;;;;;;0.13;0.13;;;;;;;12.26;42.25;101696.34;10396993;28;20021;-69
2021/04/20 17:55:36;;;;;;;0.10;0.10;;;;;;;12.01;42.28;101693.38;10416511;28;20041;-69
2021/04/20 18:00:59;;;;;;;0.10;0.10;;;;;;;11.75;42.82;101696.69;10398048;28;20141;-68
2021/04/20 18:06:21;;;;;;;0.10;0.10;;;;;;;11.64;42.46;101702.19;10397316;28;20125;-68
2021/04/20 18:11:44;;;;;;;0.10;0.10;;;;;;;11.49;42.62;101693.81;10397104;28;20120;-68
2021/04/20 18:16:58;;;;;;;0.10;0.10;;;;;;;11.26;43.30;101706.63;10397459;28;20025;-69
2021/04/20 18:22:37;;;;;;;0.03;0.03;;;;;;;11.08;44.09;101710.97;10414565;28;20476;-69
2021/04/20 18:28:00;;;;;;;0.10;0.10;;;;;;;10.92;44.50;101716.03;10416419;28;20028;-69
2021/04/20 18:33:30;;;;;;;0.10;0.10;;;;;;;10.73;45.24;101723.00;10415008;28;20041;-68
2021/04/20 18:39:10;;;;;;;0.10;0.10;;;;;;;10.52;44.88;101725.78;10411871;28;20033;-68
2021/04/20 18:44:20;;;;;;;0.10;0.10;;;;;;;10.33;45.31;101723.09;10377183;28;20044;-68
2021/04/20 18:49:44;;;;;;;0.00;0.00;;;;;;;10.15;46.22;101730.81;10396255;28;20013;-69
2021/04/20 18:55:03;;;;;;;0.03;0.03;;;;;;;9.91;47.95;101736.47;10395933;28;20366;-69
2021/04/20 19:00:13;;;;;;;0.00;0.00;;;;;;;9.57;48.24;101736.72;10412661;28;20452;-69
2021/04/20 19:05:23;;;;;;;0.00;0.00;;;;;;;9.20;52.53;101741.63;10395184;28;20029;-69
2021/04/20 19:10:26;;;;;;;0.10;0.10;;;;;;;8.77;53.42;101735.34;10411249;28;20022;-70
2021/04/20 19:15:30;;;;;;;0.00;0.00;;;;;;;8.49;56.50;101747.34;10413092;28;20463;-68
2021/04/20 19:20:38;;;;;;;;;;;;;;;8.27;55.39;101750.03;10413510;28;20025;-69
2021/04/20 19:25:57;;;;;;;0.00;0.00;;;;;;;8.26;54.19;101751.84;10413202;28;19913;-69
2021/04/20 19:30:59;;;;;;;0.05;0.05;;;;;;;8.28;54.40;101755.19;10409794;28;20021;-69
2021/04/20 19:36:18;;;;;;;0.00;0.00;;;;;;;8.12;55.40;101760.88;10411602;28;20381;-70
2021/04/20 19:41:36;;;;;;;0.00;0.00;;;;;;;7.90;56.84;101758.22;10410571;28;20021;-69
2021/04/20 19:46:44;;;;;;;0.00;0.00;;;;;;;7.71;57.70;101764.94;10407836;28;20026;-69
2021/04/20 19:51:54;;;;;;;0.08;0.08;;;;;;;7.66;56.31;101759.13;10390640;28;20020;-69
2021/04/20 19:56:54;;;;;;;0.00;0.00;;;;;;;7.53;59.02;101753.06;10410407;28;20369;-68
2021/04/20 20:01:57;;;;;;;0.00;0.00;;;;;;;7.36;58.56;101754.38;10409494;28;20037;-68
2021/04/20 20:07:03;;;;;;;0.00;0.00;;;;;;;7.38;60.98;101751.59;10410633;28;20028;-68
2021/04/20 20:12:07;;;;;;;0.00;0.00;;;;;;;7.49;61.98;101743.66;10392212;28;20022;-69
2021/04/20 20:17:10;;;;;;;0.00;0.00;;;;;;;7.53;62.60;101746.94;10370302;28;20022;-68
2021/04/20 20:22:47;;;;;;;0.00;0.00;;;;;;;7.58;64.13;101742.13;10369813;28;20105;-68
2021/04/20 20:27:53;;;;;;;0.00;0.00;;;;;;;7.59;65.49;101741.16;10356780;28;20465;-68
2021/04/20 20:32:55;;;;;;;0.00;0.00;;;;;;;7.55;68.13;101743.19;10369405;28;20026;-69
2021/04/20 20:37:57;;;;;;;0.00;0.00;;;;;;;7.52;69.24;101747.91;10410086;28;20131;-68
2021/04/20 20:43:01;;;;;;;0.00;0.00;;;;;;;7.44;69.99;101737.88;10410012;28;20045;-69
2021/04/20 20:48:07;;;;;;;0.00;0.00;;;;;;;7.40;73.42;101739.06;10409578;28;20491;-69
2021/04/20 20:53:08;;;;;;;0.00;0.00;;;;;;;7.38;74.07;101733.88;10373494;28;20389;-69
2021/04/20 20:58:33;;;;;;;0.00;0.00;;;;;;;7.35;74.53;101738.56;10368687;28;20104;-69
2021/04/20 21:03:36;;;;;;;0.00;0.00;;;;;;;7.31;74.47;101737.97;10368948;28;20061;-68
2021/04/20 21:08:37;;;;;;;0.00;0.00;;;;;;;7.29;75.61;101741.69;10382179;28;20021;-68
2021/04/20 21:13:39;;;;;;;0.00;0.00;;;;;;;7.25;76.04;101733.13;10410006;28;20033;-68
2021/04/20 21:18:45;;;;;;;0.00;0.00;;;;;;;7.24;77.61;101739.38;10408751;28;20022;-68
2021/04/20 21:23:57;;;;;;;0.00;0.00;;;;;;;7.21;79.33;101729.88;10409482;28;20040;-68
2021/04/20 21:29:23;;;;;;;0.00;0.00;;;;;;;7.16;78.43;101725.88;10408649;28;20049;-68
2021/04/20 21:34:25;;;;;;;0.00;0.00;;;;;;;7.12;79.85;101725.22;10409204;28;20029;-68
2021/04/20 21:39:31;;;;;;;0.00;0.00;;;;;;;7.12;79.79;101716.44;10374117;28;20538;-69
2021/04/20 21:44:37;;;;;;;0.00;0.00;;;;;;;7.08;79.11;101707.03;10409338;28;20083;-68
2021/04/20 21:49:40;;;;;;;0.00;0.00;;;;;;;7.01;78.39;101719.88;10390605;28;20026;-68
2021/04/20 21:54:45;;;;;;;0.00;0.00;;;;;;;6.89;77.47;101718.16;10408996;28;20062;-68
2021/04/20 21:59:59;;;;;;;0.00;0.00;;;;;;;6.83;77.48;101729.19;10411962;28;20018;-68
2021/04/20 22:05:05;;;;;;;0.00;0.00;;;;;;;6.71;78.86;101723.84;10385556;28;20022;-67
2021/04/20 22:10:07;;;;;;;0.00;0.00;;;;;;;6.63;79.08;101720.06;10376971;28;20585;-66
2021/04/20 22:15:08;;;;;;;0.00;0.00;;;;;;;6.52;79.20;101723.50;10375251;28;20018;-67
2021/04/20 22:20:10;;;;;;;0.00;0.00;;;;;;;6.43;79.90;101725.03;10382267;28;20021;-66
2021/04/20 22:25:12;;;;;;;0.00;0.00;;;;;;;6.34;80.05;101723.88;10440864;22;20045;-71
2021/04/20 22:30:16;;;;;;;0.00;0.00;;;;;;;6.32;80.54;101728.41;10419440;28;20091;-71
2021/04/20 22:35:18;;;;;;;0.00;0.00;;;;;;;6.28;80.32;101726.97;10415114;28;20071;-70
2021/04/20 22:40:21;;;;;;;0.00;0.00;;;;;;;6.20;80.59;101739.88;10425397;28;20499;-70
2021/04/20 22:45:25;;;;;;;0.00;0.00;;;;;;;6.14;81.45;101737.69;10456124;28;20078;-71
2021/04/20 22:50:31;;;;;;;0.00;0.00;;;;;;;6.10;81.07;101744.13;10437419;28;20028;-70
2021/04/20 22:55:36;;;;;;;0.00;0.00;;;;;;;6.04;82.34;101745.38;10456695;28;20033;-70
2021/04/20 23:00:40;;;;;;;0.00;0.00;;;;;;;6.00;81.75;101746.56;10457265;28;20036;-70
2021/04/20 23:05:50;;;;;;;0.00;0.00;;;;;;;5.96;81.23;101749.53;10455297;28;20013;-70
2021/04/20 23:10:56;;;;;;;0.00;0.00;;;;;;;5.90;80.78;101743.69;10454096;28;20143;-71
2021/04/20 23:15:58;;;;;;;0.00;0.00;;;;;;;5.85;81.23;101735.22;10436758;28;20388;-71
2021/04/20 23:21:01;;;;;;;0.00;0.00;;;;;;;5.79;81.92;101738.31;10453897;28;20056;-71
2021/04/20 23:26:06;;;;;;;0.00;0.00;;;;;;;5.76;82.07;101733.22;10454434;28;20032;-70
2021/04/20 23:31:14;;;;;;;0.03;0.03;;;;;;;5.72;82.90;101731.72;10452129;28;20033;-70
2021/04/20 23:36:16;;;;;;;0.00;0.00;;;;;;;5.66;82.27;101725.06;10452491;28;20550;-70
2021/04/20 23:41:17;;;;;;;0.00;0.00;;;;;;;5.62;81.72;101714.81;10450400;28;20025;-70
2021/04/20 23:46:20;;;;;;;0.10;0.10;;;;;;;5.59;81.59;101712.41;10452194;28;20376;-70